PLT7601 SBGO-SBGR
Flight info
| Callsign | PLT7601 |
|---|---|
| Flight time | 1h 10m |
| Altitude | 36000 |
| Route | ESBOD DCT UPONA DCT OBLUG/N0461F330 DCT ZARES |
| Aircraft | B738/M-SDE2E3FGHIRWXY/LB1 |
Departure
| Time | 2026-05-08 23:17 |
|---|---|
| Airport | Santa Genoveva International Airport (SBGO) |
Arrival
| Time | 2026-05-09 00:27 |
|---|---|
| Airport | São Paulo/Guarulhos–Governor André Franco Montoro International Airport (SBGR) |
| Time | Latitude | Longitude | Altitude | Speed | Heading |
|---|---|---|---|---|---|
| 2026-05-08 23:04 | -16.62910 | -49.21561 | 2461 ft | 0 kts | 75° |
| 2026-05-08 23:06 | -16.62911 | -49.21565 | 2461 ft | 0 kts | 75° |
| 2026-05-08 23:07 | -16.62916 | -49.21583 | 2461 ft | 4 kts | 75° |
| 2026-05-08 23:07 | -16.62923 | -49.21608 | 2464 ft | 2 kts | 69° |
| 2026-05-08 23:08 | -16.62928 | -49.21619 | 2461 ft | 2 kts | 38° |
| 2026-05-08 23:08 | -16.62938 | -49.21623 | 2464 ft | 2 kts | 351° |
| 2026-05-08 23:08 | -16.62949 | -49.21620 | 2464 ft | 1 kts | 346° |
| 2026-05-08 23:11 | -16.62947 | -49.21621 | 2463 ft | 1 kts | 345° |
| 2026-05-08 23:11 | -16.62926 | -49.21637 | 2461 ft | 7 kts | 306° |
| 2026-05-08 23:11 | -16.62927 | -49.21714 | 2459 ft | 16 kts | 256° |
| 2026-05-08 23:12 | -16.62955 | -49.21849 | 2451 ft | 21 kts | 257° |
| 2026-05-08 23:12 | -16.62988 | -49.22004 | 2450 ft | 16 kts | 255° |
| 2026-05-08 23:12 | -16.63045 | -49.22022 | 2437 ft | 11 kts | 145° |
| 2026-05-08 23:12 | -16.63093 | -49.21951 | 2438 ft | 14 kts | 120° |
| 2026-05-08 23:13 | -16.63146 | -49.21856 | 2444 ft | 17 kts | 120° |
| 2026-05-08 23:13 | -16.63209 | -49.21743 | 2452 ft | 19 kts | 120° |
| 2026-05-08 23:13 | -16.63275 | -49.21625 | 2449 ft | 19 kts | 120° |
| 2026-05-08 23:13 | -16.63340 | -49.21511 | 2460 ft | 18 kts | 121° |
| 2026-05-08 23:14 | -16.63402 | -49.21401 | 2461 ft | 17 kts | 120° |
| 2026-05-08 23:14 | -16.63461 | -49.21294 | 2465 ft | 17 kts | 120° |
| 2026-05-08 23:14 | -16.63518 | -49.21193 | 2461 ft | 16 kts | 120° |
| 2026-05-08 23:14 | -16.63572 | -49.21096 | 2460 ft | 8 kts | 120° |
| 2026-05-08 23:15 | -16.63592 | -49.21060 | 2462 ft | 6 kts | 120° |
| 2026-05-08 23:15 | -16.63633 | -49.21041 | 2461 ft | 7 kts | 183° |
| 2026-05-08 23:15 | -16.63689 | -49.21069 | 2461 ft | 10 kts | 210° |
| 2026-05-08 23:15 | -16.63744 | -49.21109 | 2466 ft | 10 kts | 242° |
| 2026-05-08 23:16 | -16.63737 | -49.21145 | 2461 ft | 2 kts | 301° |
| 2026-05-08 23:16 | -16.63713 | -49.21186 | 2462 ft | 25 kts | 301° |
| 2026-05-08 23:16 | -16.63503 | -49.21560 | 2459 ft | 94 kts | 300° |
| 2026-05-08 23:16 | -16.63065 | -49.22341 | 2455 ft | 152 kts | 300° |
| 2026-05-08 23:17 | -16.62462 | -49.23419 | 2686 ft | 182 kts | 302° |
| 2026-05-08 23:17 | -16.61808 | -49.24531 | 3537 ft | 179 kts | 302° |
| 2026-05-08 23:17 | -16.61386 | -49.25749 | 4050 ft | 186 kts | 273° |
| 2026-05-08 23:17 | -16.61705 | -49.27090 | 4430 ft | 200 kts | 241° |
| 2026-05-08 23:18 | -16.62669 | -49.28163 | 4881 ft | 208 kts | 212° |
| 2026-05-08 23:18 | -16.64042 | -49.28628 | 5360 ft | 212 kts | 182° |
| 2026-05-08 23:18 | -16.65558 | -49.28545 | 5618 ft | 225 kts | 171° |
| 2026-05-08 23:18 | -16.67145 | -49.28210 | 5793 ft | 241 kts | 163° |
| 2026-05-08 23:19 | -16.68765 | -49.27706 | 6254 ft | 243 kts | 160° |
| 2026-05-08 23:19 | -16.70425 | -49.27160 | 6546 ft | 262 kts | 163° |
| 2026-05-08 23:19 | -16.72251 | -49.26633 | 6753 ft | 281 kts | 163° |
| 2026-05-08 23:19 | -16.74161 | -49.26036 | 7203 ft | 290 kts | 162° |
| 2026-05-08 23:20 | -16.76101 | -49.25415 | 7819 ft | 292 kts | 162° |
| 2026-05-08 23:20 | -16.78051 | -49.24790 | 8489 ft | 294 kts | 162° |
| 2026-05-08 23:20 | -16.79992 | -49.24170 | 9154 ft | 297 kts | 163° |
| 2026-05-08 23:20 | -16.81979 | -49.23538 | 9847 ft | 300 kts | 163° |
| 2026-05-08 23:21 | -16.83994 | -49.22898 | 10396 ft | 308 kts | 163° |
| 2026-05-08 23:21 | -16.86114 | -49.22227 | 10546 ft | 330 kts | 163° |
| 2026-05-08 23:21 | -16.88384 | -49.21508 | 10656 ft | 351 kts | 163° |
| 2026-05-08 23:21 | -16.90762 | -49.20756 | 10992 ft | 363 kts | 163° |
| 2026-05-08 23:22 | -16.93201 | -49.19986 | 11547 ft | 367 kts | 163° |
| 2026-05-08 23:22 | -16.95652 | -49.19211 | 12172 ft | 370 kts | 163° |
| 2026-05-08 23:22 | -16.98124 | -49.18430 | 12790 ft | 373 kts | 163° |
| 2026-05-08 23:22 | -17.00624 | -49.17640 | 13371 ft | 377 kts | 162° |
| 2026-05-08 23:23 | -17.03148 | -49.16842 | 13956 ft | 381 kts | 162° |
| 2026-05-08 23:23 | -17.05698 | -49.16035 | 14497 ft | 384 kts | 162° |
| 2026-05-08 23:23 | -17.08261 | -49.15225 | 15077 ft | 386 kts | 162° |
| 2026-05-08 23:23 | -17.10842 | -49.14408 | 15635 ft | 389 kts | 162° |
| 2026-05-08 23:24 | -17.13447 | -49.13583 | 16183 ft | 392 kts | 162° |
| 2026-05-08 23:24 | -17.16068 | -49.12753 | 16718 ft | 395 kts | 162° |
| 2026-05-08 23:24 | -17.18710 | -49.11916 | 17247 ft | 398 kts | 163° |
| 2026-05-08 23:24 | -17.21369 | -49.11074 | 17759 ft | 401 kts | 163° |
| 2026-05-08 23:25 | -17.24053 | -49.10223 | 18263 ft | 404 kts | 163° |
| 2026-05-08 23:25 | -17.26749 | -49.09369 | 18686 ft | 407 kts | 163° |
| 2026-05-08 23:25 | -17.29481 | -49.08557 | 19105 ft | 410 kts | 167° |
| 2026-05-08 23:25 | -17.32314 | -49.08168 | 19514 ft | 412 kts | 177° |
| 2026-05-08 23:26 | -17.35191 | -49.08036 | 19944 ft | 415 kts | 178° |
| 2026-05-08 23:26 | -17.38086 | -49.07937 | 20351 ft | 418 kts | 179° |
| 2026-05-08 23:26 | -17.40966 | -49.07844 | 20747 ft | 421 kts | 179° |
| 2026-05-08 23:26 | -17.43900 | -49.07743 | 21153 ft | 423 kts | 179° |
| 2026-05-08 23:27 | -17.46852 | -49.07632 | 21550 ft | 426 kts | 178° |
| 2026-05-08 23:27 | -17.49823 | -49.07513 | 21941 ft | 429 kts | 178° |
| 2026-05-08 23:27 | -17.52812 | -49.07387 | 22330 ft | 431 kts | 178° |
| 2026-05-08 23:27 | -17.55818 | -49.07257 | 22705 ft | 434 kts | 178° |
| 2026-05-08 23:28 | -17.58844 | -49.07125 | 23080 ft | 436 kts | 179° |
| 2026-05-08 23:28 | -17.61886 | -49.06990 | 23450 ft | 439 kts | 179° |
| 2026-05-08 23:28 | -17.64950 | -49.06855 | 23757 ft | 442 kts | 179° |
| 2026-05-08 23:28 | -17.68030 | -49.06719 | 24075 ft | 444 kts | 179° |
| 2026-05-08 23:29 | -17.71122 | -49.06582 | 24423 ft | 445 kts | 179° |
| 2026-05-08 23:29 | -17.74224 | -49.06444 | 24759 ft | 447 kts | 179° |
| 2026-05-08 23:29 | -17.77336 | -49.06307 | 25070 ft | 448 kts | 179° |
| 2026-05-08 23:29 | -17.80461 | -49.06169 | 25377 ft | 450 kts | 179° |
| 2026-05-08 23:30 | -17.83600 | -49.06030 | 25691 ft | 452 kts | 179° |
| 2026-05-08 23:30 | -17.86749 | -49.05891 | 26005 ft | 454 kts | 179° |
| 2026-05-08 23:30 | -17.89914 | -49.05751 | 26291 ft | 456 kts | 180° |
| 2026-05-08 23:30 | -17.93093 | -49.05610 | 26567 ft | 458 kts | 180° |
| 2026-05-08 23:31 | -17.96280 | -49.05469 | 26881 ft | 460 kts | 180° |
| 2026-05-08 23:31 | -17.99488 | -49.05327 | 27187 ft | 461 kts | 180° |
| 2026-05-08 23:31 | -18.02699 | -49.05185 | 27480 ft | 463 kts | 180° |
| 2026-05-08 23:31 | -18.05926 | -49.05042 | 27768 ft | 465 kts | 180° |
| 2026-05-08 23:32 | -18.09160 | -49.04899 | 28042 ft | 466 kts | 180° |
| 2026-05-08 23:32 | -18.12408 | -49.04755 | 28324 ft | 468 kts | 180° |
| 2026-05-08 23:32 | -18.15667 | -49.04610 | 28568 ft | 470 kts | 180° |
| 2026-05-08 23:32 | -18.18948 | -49.04465 | 28811 ft | 472 kts | 180° |
| 2026-05-08 23:33 | -18.21121 | -49.04368 | 28986 ft | 473 kts | 180° |
| 2026-05-08 23:33 | -18.24421 | -49.04222 | 29251 ft | 475 kts | 180° |
| 2026-05-08 23:33 | -18.27729 | -49.04075 | 29477 ft | 476 kts | 180° |
| 2026-05-08 23:33 | -18.31046 | -49.03927 | 29739 ft | 478 kts | 180° |
| 2026-05-08 23:34 | -18.34370 | -49.03779 | 29989 ft | 479 kts | 180° |
| 2026-05-08 23:34 | -18.37707 | -49.03631 | 30184 ft | 481 kts | 181° |
| 2026-05-08 23:34 | -18.41055 | -49.03482 | 30402 ft | 482 kts | 181° |
| 2026-05-08 23:34 | -18.44404 | -49.03332 | 30689 ft | 481 kts | 181° |
| 2026-05-08 23:35 | -18.47736 | -49.03183 | 31064 ft | 478 kts | 181° |
| 2026-05-08 23:35 | -18.51047 | -49.03034 | 31437 ft | 475 kts | 181° |
| 2026-05-08 23:35 | -18.54344 | -49.02886 | 31790 ft | 473 kts | 181° |
| 2026-05-08 23:35 | -18.57626 | -49.02740 | 32119 ft | 472 kts | 181° |
| 2026-05-08 23:36 | -18.60900 | -49.02594 | 32451 ft | 470 kts | 181° |
| 2026-05-08 23:36 | -18.64161 | -49.02449 | 32827 ft | 468 kts | 181° |
| 2026-05-08 23:36 | -18.67406 | -49.02304 | 33142 ft | 467 kts | 181° |
| 2026-05-08 23:36 | -18.70659 | -49.02159 | 33425 ft | 467 kts | 182° |
| 2026-05-08 23:37 | -18.73854 | -49.02016 | 33734 ft | 465 kts | 182° |
| 2026-05-08 23:37 | -18.77072 | -49.01872 | 34103 ft | 462 kts | 182° |
| 2026-05-08 23:37 | -18.80285 | -49.01728 | 34393 ft | 460 kts | 182° |
| 2026-05-08 23:37 | -18.83479 | -49.01585 | 34611 ft | 460 kts | 182° |
| 2026-05-08 23:38 | -18.86680 | -49.01443 | 34810 ft | 460 kts | 182° |
| 2026-05-08 23:38 | -18.89883 | -49.01300 | 35061 ft | 460 kts | 182° |
| 2026-05-08 23:38 | -18.93073 | -49.01157 | 35303 ft | 459 kts | 182° |
| 2026-05-08 23:38 | -18.96260 | -49.01014 | 35556 ft | 457 kts | 182° |
| 2026-05-08 23:39 | -18.99439 | -49.00872 | 35792 ft | 457 kts | 182° |
| 2026-05-08 23:39 | -19.02614 | -49.00730 | 35994 ft | 457 kts | 182° |
| 2026-05-08 23:39 | -19.09016 | -49.00445 | 35997 ft | 462 kts | 182° |
| 2026-05-08 23:40 | -19.15416 | -49.00157 | 35987 ft | 457 kts | 182° |
| 2026-05-08 23:40 | -19.21690 | -48.99872 | 35992 ft | 453 kts | 183° |
| 2026-05-08 23:41 | -19.27977 | -48.99590 | 35993 ft | 452 kts | 183° |
| 2026-05-08 23:41 | -19.34257 | -48.99308 | 35990 ft | 451 kts | 183° |
| 2026-05-08 23:42 | -19.40532 | -48.99027 | 35998 ft | 451 kts | 183° |
| 2026-05-08 23:42 | -19.46822 | -48.98744 | 35993 ft | 453 kts | 183° |
| 2026-05-08 23:43 | -19.53124 | -48.98461 | 35995 ft | 454 kts | 183° |
| 2026-05-08 23:43 | -19.59462 | -48.98175 | 35989 ft | 456 kts | 183° |
| 2026-05-08 23:44 | -19.65773 | -48.97890 | 35989 ft | 457 kts | 183° |
| 2026-05-08 23:44 | -19.72146 | -48.97602 | 35983 ft | 459 kts | 183° |
| 2026-05-08 23:45 | -19.78531 | -48.97313 | 35987 ft | 460 kts | 183° |
| 2026-05-08 23:45 | -19.84930 | -48.97023 | 35985 ft | 460 kts | 183° |
| 2026-05-08 23:46 | -19.91326 | -48.96733 | 35986 ft | 460 kts | 183° |
| 2026-05-08 23:46 | -19.97725 | -48.96442 | 35977 ft | 460 kts | 183° |
| 2026-05-08 23:47 | -20.04123 | -48.96152 | 35976 ft | 460 kts | 183° |
| 2026-05-08 23:47 | -20.10508 | -48.95861 | 35981 ft | 459 kts | 183° |
| 2026-05-08 23:48 | -20.16887 | -48.95571 | 35976 ft | 459 kts | 183° |
| 2026-05-08 23:48 | -20.23266 | -48.95282 | 35972 ft | 459 kts | 183° |
| 2026-05-08 23:49 | -20.29651 | -48.94991 | 35968 ft | 459 kts | 183° |
| 2026-05-08 23:49 | -20.36029 | -48.94700 | 35971 ft | 459 kts | 183° |
| 2026-05-08 23:50 | -20.42407 | -48.94410 | 35974 ft | 459 kts | 184° |
| 2026-05-08 23:50 | -20.48789 | -48.94118 | 35966 ft | 459 kts | 184° |
| 2026-05-08 23:51 | -20.55187 | -48.93826 | 35964 ft | 460 kts | 184° |
| 2026-05-08 23:51 | -20.61545 | -48.93536 | 35964 ft | 461 kts | 184° |
| 2026-05-08 23:52 | -20.67954 | -48.93243 | 35975 ft | 462 kts | 184° |
| 2026-05-08 23:52 | -20.74387 | -48.92948 | 35965 ft | 463 kts | 184° |
| 2026-05-08 23:53 | -20.80827 | -48.92653 | 35963 ft | 463 kts | 184° |
| 2026-05-08 23:53 | -20.87274 | -48.92357 | 35965 ft | 464 kts | 184° |
| 2026-05-08 23:54 | -20.93731 | -48.92060 | 35969 ft | 464 kts | 184° |
| 2026-05-08 23:55 | -21.03425 | -48.91615 | 35948 ft | 465 kts | 184° |
| 2026-05-08 23:55 | -21.09884 | -48.91317 | 35955 ft | 464 kts | 184° |
| 2026-05-08 23:56 | -21.16337 | -48.91019 | 35970 ft | 464 kts | 184° |
| 2026-05-08 23:56 | -21.22794 | -48.90378 | 35953 ft | 473 kts | 172° |
| 2026-05-08 23:57 | -21.29157 | -48.88401 | 35952 ft | 477 kts | 169° |
| 2026-05-08 23:57 | -21.35516 | -48.86283 | 35942 ft | 478 kts | 169° |
| 2026-05-08 23:58 | -21.41848 | -48.84219 | 35955 ft | 478 kts | 169° |
| 2026-05-08 23:58 | -21.48222 | -48.82183 | 35955 ft | 478 kts | 170° |
| 2026-05-08 23:59 | -21.54610 | -48.80152 | 35954 ft | 479 kts | 170° |
| 2026-05-08 23:59 | -21.61009 | -48.78116 | 35945 ft | 480 kts | 170° |
| 2026-05-09 00:00 | -21.67424 | -48.76071 | 35948 ft | 481 kts | 170° |
| 2026-05-09 00:00 | -21.73849 | -48.74020 | 35942 ft | 482 kts | 170° |
| 2026-05-09 00:01 | -21.80286 | -48.71963 | 35954 ft | 483 kts | 170° |
| 2026-05-09 00:01 | -21.86730 | -48.69901 | 35959 ft | 483 kts | 169° |
| 2026-05-09 00:02 | -21.93137 | -48.67850 | 35949 ft | 484 kts | 169° |
| 2026-05-09 00:02 | -21.99627 | -48.65770 | 35945 ft | 483 kts | 169° |
| 2026-05-09 00:03 | -22.06025 | -48.63717 | 35950 ft | 483 kts | 169° |
| 2026-05-09 00:03 | -22.12470 | -48.61648 | 35945 ft | 482 kts | 169° |
| 2026-05-09 00:04 | -22.18897 | -48.59582 | 35954 ft | 482 kts | 169° |
| 2026-05-09 00:04 | -22.25326 | -48.57514 | 35947 ft | 482 kts | 169° |
| 2026-05-09 00:05 | -22.31752 | -48.55445 | 35964 ft | 482 kts | 169° |
| 2026-05-09 00:05 | -22.38193 | -48.53369 | 35949 ft | 482 kts | 169° |
| 2026-05-09 00:06 | -22.44623 | -48.51294 | 35948 ft | 482 kts | 169° |
| 2026-05-09 00:06 | -22.51047 | -48.49219 | 35950 ft | 481 kts | 169° |
| 2026-05-09 00:07 | -22.57375 | -48.46946 | 35925 ft | 490 kts | 156° |
| 2026-05-09 00:07 | -22.60174 | -48.44752 | 35471 ft | 508 kts | 137° |
| 2026-05-09 00:07 | -22.62330 | -48.41708 | 34922 ft | 512 kts | 119° |
| 2026-05-09 00:07 | -22.63689 | -48.38144 | 34335 ft | 514 kts | 109° |
| 2026-05-09 00:08 | -22.64791 | -48.34458 | 33726 ft | 514 kts | 107° |
| 2026-05-09 00:08 | -22.65844 | -48.30784 | 33252 ft | 510 kts | 107° |
| 2026-05-09 00:08 | -22.66903 | -48.27128 | 32752 ft | 506 kts | 107° |
| 2026-05-09 00:08 | -22.67977 | -48.23517 | 32307 ft | 502 kts | 108° |
| 2026-05-09 00:09 | -22.69066 | -48.19936 | 31836 ft | 499 kts | 108° |
| 2026-05-09 00:09 | -22.70160 | -48.16387 | 31378 ft | 495 kts | 108° |
| 2026-05-09 00:09 | -22.71253 | -48.12862 | 30934 ft | 492 kts | 108° |
| 2026-05-09 00:09 | -22.72335 | -48.09365 | 30494 ft | 488 kts | 107° |
| 2026-05-09 00:10 | -22.73410 | -48.05884 | 30031 ft | 486 kts | 107° |
| 2026-05-09 00:10 | -22.74475 | -48.02423 | 29527 ft | 483 kts | 107° |
| 2026-05-09 00:10 | -22.75520 | -47.99024 | 29031 ft | 479 kts | 107° |
| 2026-05-09 00:10 | -22.76574 | -47.95612 | 28564 ft | 475 kts | 109° |
| 2026-05-09 00:11 | -22.77900 | -47.92355 | 28097 ft | 471 kts | 118° |
| 2026-05-09 00:11 | -22.79493 | -47.89265 | 27659 ft | 467 kts | 120° |
| 2026-05-09 00:11 | -22.81079 | -47.86210 | 27223 ft | 463 kts | 118° |
| 2026-05-09 00:11 | -22.82602 | -47.83153 | 26828 ft | 459 kts | 117° |
| 2026-05-09 00:12 | -22.84074 | -47.80118 | 26583 ft | 451 kts | 117° |
| 2026-05-09 00:12 | -22.85512 | -47.77123 | 26336 ft | 444 kts | 117° |
| 2026-05-09 00:12 | -22.86925 | -47.74173 | 26103 ft | 440 kts | 117° |
| 2026-05-09 00:12 | -22.88345 | -47.71212 | 25883 ft | 446 kts | 117° |
| 2026-05-09 00:13 | -22.89785 | -47.68211 | 25638 ft | 450 kts | 117° |
| 2026-05-09 00:13 | -22.91228 | -47.65208 | 25384 ft | 447 kts | 117° |
| 2026-05-09 00:13 | -22.92661 | -47.62227 | 25137 ft | 443 kts | 117° |
| 2026-05-09 00:13 | -22.94078 | -47.59279 | 24860 ft | 436 kts | 117° |
| 2026-05-09 00:14 | -22.95473 | -47.56374 | 24645 ft | 435 kts | 117° |
| 2026-05-09 00:14 | -22.96879 | -47.53446 | 24426 ft | 439 kts | 117° |
| 2026-05-09 00:14 | -22.98294 | -47.50496 | 24172 ft | 441 kts | 117° |
| 2026-05-09 00:14 | -22.99704 | -47.47554 | 23925 ft | 437 kts | 117° |
| 2026-05-09 00:15 | -23.01090 | -47.44662 | 23622 ft | 436 kts | 117° |
| 2026-05-09 00:15 | -23.02488 | -47.41745 | 23285 ft | 435 kts | 117° |
| 2026-05-09 00:15 | -23.03896 | -47.38804 | 22959 ft | 433 kts | 117° |
| 2026-05-09 00:15 | -23.05262 | -47.35949 | 22564 ft | 430 kts | 117° |
| 2026-05-09 00:16 | -23.06635 | -47.33080 | 22202 ft | 426 kts | 117° |
| 2026-05-09 00:16 | -23.07994 | -47.30236 | 21844 ft | 422 kts | 117° |
| 2026-05-09 00:16 | -23.09341 | -47.27418 | 21495 ft | 418 kts | 116° |
| 2026-05-09 00:16 | -23.10674 | -47.24628 | 21142 ft | 413 kts | 116° |
| 2026-05-09 00:17 | -23.11965 | -47.21857 | 20794 ft | 409 kts | 111° |
| 2026-05-09 00:17 | -23.12608 | -47.18902 | 20436 ft | 398 kts | 88° |
| 2026-05-09 00:17 | -23.12311 | -47.15973 | 20124 ft | 386 kts | 71° |
| 2026-05-09 00:17 | -23.11342 | -47.13306 | 19813 ft | 375 kts | 56° |
| 2026-05-09 00:18 | -23.09812 | -47.11074 | 19514 ft | 365 kts | 43° |
| 2026-05-09 00:18 | -23.08086 | -47.09067 | 19189 ft | 362 kts | 42° |
| 2026-05-09 00:18 | -23.06364 | -47.07068 | 18780 ft | 366 kts | 47° |
| 2026-05-09 00:18 | -23.05222 | -47.04584 | 18514 ft | 373 kts | 73° |
| 2026-05-09 00:19 | -23.04953 | -47.01778 | 18309 ft | 378 kts | 89° |
| 2026-05-09 00:19 | -23.05424 | -46.98955 | 18053 ft | 385 kts | 107° |
| 2026-05-09 00:19 | -23.06339 | -46.96215 | 17813 ft | 385 kts | 109° |
| 2026-05-09 00:19 | -23.07313 | -46.93513 | 17398 ft | 386 kts | 109° |
| 2026-05-09 00:20 | -23.08301 | -46.90821 | 16854 ft | 389 kts | 111° |
| 2026-05-09 00:20 | -23.09700 | -46.88305 | 16255 ft | 389 kts | 130° |
| 2026-05-09 00:20 | -23.11739 | -46.86403 | 15536 ft | 386 kts | 147° |
| 2026-05-09 00:20 | -23.14033 | -46.84913 | 14847 ft | 383 kts | 152° |
| 2026-05-09 00:21 | -23.16407 | -46.83625 | 14160 ft | 380 kts | 156° |
| 2026-05-09 00:21 | -23.18819 | -46.82445 | 13442 ft | 378 kts | 157° |
| 2026-05-09 00:21 | -23.21217 | -46.81294 | 12628 ft | 377 kts | 157° |
| 2026-05-09 00:21 | -23.23609 | -46.80133 | 11832 ft | 376 kts | 156° |
| 2026-05-09 00:22 | -23.25993 | -46.78954 | 11046 ft | 376 kts | 156° |
| 2026-05-09 00:22 | -23.28342 | -46.77777 | 10291 ft | 374 kts | 156° |
| 2026-05-09 00:22 | -23.30696 | -46.76588 | 9537 ft | 372 kts | 155° |
| 2026-05-09 00:22 | -23.33008 | -46.75415 | 9034 ft | 361 kts | 155° |
| 2026-05-09 00:23 | -23.35255 | -46.74273 | 8528 ft | 352 kts | 155° |
| 2026-05-09 00:23 | -23.36746 | -46.73516 | 8204 ft | 347 kts | 155° |
| 2026-05-09 00:23 | -23.38911 | -46.72417 | 7725 ft | 341 kts | 155° |
| 2026-05-09 00:23 | -23.41043 | -46.71334 | 7260 ft | 335 kts | 155° |
| 2026-05-09 00:24 | -23.42952 | -46.69981 | 6759 ft | 331 kts | 134° |
| 2026-05-09 00:24 | -23.44335 | -46.68026 | 6287 ft | 323 kts | 123° |
| 2026-05-09 00:24 | -23.45572 | -46.66011 | 5817 ft | 317 kts | 121° |
| 2026-05-09 00:24 | -23.46780 | -46.64012 | 5341 ft | 313 kts | 118° |
| 2026-05-09 00:25 | -23.47455 | -46.61819 | 4849 ft | 302 kts | 87° |
| 2026-05-09 00:25 | -23.47079 | -46.59663 | 4512 ft | 283 kts | 64° |
| 2026-05-09 00:25 | -23.46370 | -46.57683 | 4118 ft | 279 kts | 65° |
| 2026-05-09 00:25 | -23.45773 | -46.55711 | 3838 ft | 267 kts | 71° |
| 2026-05-09 00:26 | -23.45284 | -46.53853 | 3487 ft | 243 kts | 71° |
| 2026-05-09 00:26 | -23.44823 | -46.52168 | 3200 ft | 222 kts | 71° |
| 2026-05-09 00:26 | -23.44403 | -46.50623 | 2897 ft | 204 kts | 70° |
| 2026-05-09 00:26 | -23.44019 | -46.49210 | 2628 ft | 184 kts | 71° |
| 2026-05-09 00:27 | -23.43675 | -46.47936 | 2480 ft | 169 kts | 70° |
| 2026-05-09 00:27 | -23.43377 | -46.46849 | 2465 ft | 108 kts | 75° |
| 2026-05-09 00:27 | -23.43269 | -46.46464 | 2466 ft | 11 kts | 66° |
| 2026-05-09 00:27 | -23.43228 | -46.46390 | 2465 ft | 11 kts | 55° |
| 2026-05-09 00:28 | -23.43179 | -46.46323 | 2468 ft | 11 kts | 44° |
| 2026-05-09 00:28 | -23.43124 | -46.46266 | 2466 ft | 11 kts | 43° |
| 2026-05-09 00:28 | -23.43068 | -46.46208 | 2466 ft | 12 kts | 42° |
| 2026-05-09 00:28 | -23.43002 | -46.46146 | 2465 ft | 13 kts | 33° |
| 2026-05-09 00:29 | -23.42919 | -46.46149 | 2461 ft | 12 kts | 343° |
| 2026-05-09 00:29 | -23.42839 | -46.46175 | 2462 ft | 12 kts | 345° |
| 2026-05-09 00:29 | -23.42759 | -46.46199 | 2465 ft | 12 kts | 345° |
| 2026-05-09 00:29 | -23.42697 | -46.46243 | 2464 ft | 12 kts | 281° |
| 2026-05-09 00:30 | -23.42712 | -46.46327 | 2466 ft | 11 kts | 255° |
| 2026-05-09 00:30 | -23.42732 | -46.46409 | 2465 ft | 11 kts | 255° |
| 2026-05-09 00:30 | -23.42754 | -46.46487 | 2465 ft | 11 kts | 252° |
| 2026-05-09 00:30 | -23.42777 | -46.46567 | 2463 ft | 11 kts | 254° |
| 2026-05-09 00:31 | -23.42801 | -46.46657 | 2467 ft | 14 kts | 253° |
| 2026-05-09 00:31 | -23.42827 | -46.46755 | 2466 ft | 13 kts | 252° |
| 2026-05-09 00:31 | -23.42854 | -46.46849 | 2468 ft | 13 kts | 253° |
| 2026-05-09 00:31 | -23.42879 | -46.46941 | 2469 ft | 12 kts | 253° |
| 2026-05-09 00:32 | -23.42902 | -46.47031 | 2469 ft | 12 kts | 254° |
| 2026-05-09 00:32 | -23.42924 | -46.47119 | 2471 ft | 12 kts | 255° |
| 2026-05-09 00:32 | -23.42950 | -46.47204 | 2467 ft | 12 kts | 250° |
| 2026-05-09 00:32 | -23.42976 | -46.47290 | 2464 ft | 12 kts | 255° |
| 2026-05-09 00:33 | -23.42996 | -46.47375 | 2469 ft | 11 kts | 256° |
| 2026-05-09 00:33 | -23.43017 | -46.47457 | 2467 ft | 11 kts | 253° |
| 2026-05-09 00:33 | -23.43038 | -46.47536 | 2467 ft | 11 kts | 254° |
| 2026-05-09 00:33 | -23.43060 | -46.47614 | 2465 ft | 10 kts | 253° |
| 2026-05-09 00:34 | -23.43080 | -46.47688 | 2463 ft | 10 kts | 253° |
| 2026-05-09 00:34 | -23.43100 | -46.47761 | 2469 ft | 10 kts | 254° |
| 2026-05-09 00:34 | -23.43119 | -46.47832 | 2464 ft | 10 kts | 253° |
| 2026-05-09 00:34 | -23.43137 | -46.47901 | 2464 ft | 9 kts | 253° |
| 2026-05-09 00:35 | -23.43156 | -46.47969 | 2467 ft | 9 kts | 253° |
| 2026-05-09 00:35 | -23.43173 | -46.48034 | 2468 ft | 9 kts | 254° |
| 2026-05-09 00:35 | -23.43190 | -46.48098 | 2470 ft | 9 kts | 254° |
| 2026-05-09 00:35 | -23.43210 | -46.48171 | 2469 ft | 12 kts | 253° |
| 2026-05-09 00:36 | -23.43233 | -46.48255 | 2470 ft | 11 kts | 253° |
| 2026-05-09 00:36 | -23.43253 | -46.48327 | 2468 ft | 7 kts | 253° |
| 2026-05-09 00:36 | -23.43242 | -46.48374 | 2467 ft | 7 kts | 317° |
| 2026-05-09 00:36 | -23.43200 | -46.48412 | 2465 ft | 10 kts | 298° |
| 2026-05-09 00:37 | -23.43188 | -46.48496 | 2464 ft | 11 kts | 275° |
| 2026-05-09 00:37 | -23.43181 | -46.48580 | 2467 ft | 11 kts | 275° |
| 2026-05-09 00:37 | -23.43172 | -46.48662 | 2467 ft | 11 kts | 277° |
| 2026-05-09 00:37 | -23.43164 | -46.48741 | 2467 ft | 10 kts | 278° |
| 2026-05-09 00:38 | -23.43141 | -46.48813 | 2466 ft | 10 kts | 283° |
| 2026-05-09 00:38 | -23.43134 | -46.48869 | 2468 ft | 4 kts | 275° |
| 2026-05-09 00:38 | -23.43134 | -46.48874 | 2463 ft | 0 kts | 275° |
| 2026-05-09 00:38 | -23.43134 | -46.48876 | 2463 ft | 0 kts | 275° |